Stonyfork, Pennsylvania
Current Conditions -  °F | °C
As of 8:35 PM on Thursday 27 Nov 2014 (Local Time) from KN38 Reporting Station
Unknown Precip Unknown Precip  
Wind Chill: 28°   Ceiling: 3200
Heat Index: 28°   Visibility: 5mi
Dew Point: 23°   Wind: 3mph
Humidity: 80%   Direction: 240°WSW
Pressure: 30.03"   Gusts: NA
Location:  41.7308°N, 77.349°W
Report Text: KN38 280135Z AUTO 24003KT 5SM -UP FEW024 BKN032 OVC044 M02/M05 A3003 RMK AO2
Loading
Personal Weather Stations






























Interactive Weather Map New forecast layout! Learn more

10-Day Weather Forecast

Advertisements
Track Severe Weather on mobile